sensor_id;sensor_type;location;lat;lon;timestamp;pressure;altitude;pressure_sealevel;temperature;humidity
58875;BME280;44652;49.040;12.126;2022-07-29T00:02:25;97402.56;;;20.80;50.29
58875;BME280;44652;49.040;12.126;2022-07-29T00:04:52;97376.00;;;20.64;50.35
58875;BME280;44652;49.040;12.126;2022-07-29T00:07:19;97394.66;;;20.71;50.68
58875;BME280;44652;49.040;12.126;2022-07-29T00:09:46;97375.91;;;20.71;50.71
58875;BME280;44652;49.040;12.126;2022-07-29T00:12:22;97404.41;;;20.76;50.11
58875;BME280;44652;49.040;12.126;2022-07-29T00:14:53;97398.94;;;20.81;50.37
58875;BME280;44652;49.040;12.126;2022-07-29T00:17:20;97389.06;;;20.84;49.75
58875;BME280;44652;49.040;12.126;2022-07-29T00:19:47;97394.28;;;20.92;49.60
58875;BME280;44652;49.040;12.126;2022-07-29T00:22:13;97372.25;;;20.75;49.66
58875;BME280;44652;49.040;12.126;2022-07-29T00:24:40;97391.88;;;20.75;50.28
58875;BME280;44652;49.040;12.126;2022-07-29T00:27:07;97382.16;;;20.71;50.40
58875;BME280;44652;49.040;12.126;2022-07-29T00:29:33;97363.63;;;20.59;50.55
58875;BME280;44652;49.040;12.126;2022-07-29T00:32:02;97387.44;;;20.74;50.50
58875;BME280;44652;49.040;12.126;2022-07-29T00:34:29;97384.72;;;20.77;50.34
58875;BME280;44652;49.040;12.126;2022-07-29T00:37:14;97367.19;;;20.61;50.42
58875;BME280;44652;49.040;12.126;2022-07-29T00:39:40;97391.00;;;20.76;50.00
58875;BME280;44652;49.040;12.126;2022-07-29T00:42:07;97380.28;;;20.75;50.18
58875;BME280;44652;49.040;12.126;2022-07-29T00:44:38;97390.19;;;20.73;49.93
58875;BME280;44652;49.040;12.126;2022-07-29T00:47:06;97383.91;;;20.74;50.47
58875;BME280;44652;49.040;12.126;2022-07-29T00:49:33;97363.66;;;20.56;50.55
58875;BME280;44652;49.040;12.126;2022-07-29T00:52:04;97378.81;;;20.57;50.83
58875;BME280;44652;49.040;12.126;2022-07-29T00:54:33;97379.59;;;20.63;50.67
58875;BME280;44652;49.040;12.126;2022-07-29T00:57:00;97371.59;;;20.62;50.42
58875;BME280;44652;49.040;12.126;2022-07-29T00:59:27;97374.25;;;20.65;50.74
58875;BME280;44652;49.040;12.126;2022-07-29T01:02:00;97383.09;;;20.69;50.65
58875;BME280;44652;49.040;12.126;2022-07-29T01:04:27;97374.28;;;20.60;50.82
58875;BME280;44652;49.040;12.126;2022-07-29T01:06:56;97362.00;;;20.47;50.81
58875;BME280;44652;49.040;12.126;2022-07-29T01:09:23;97370.88;;;20.52;51.54
58875;BME280;44652;49.040;12.126;2022-07-29T01:12:10;97351.25;;;20.49;51.23
58875;BME280;44652;49.040;12.126;2022-07-29T01:14:40;97355.16;;;20.31;51.46
58875;BME280;44652;49.040;12.126;2022-07-29T01:17:12;97371.13;;;20.35;51.86
58875;BME280;44652;49.040;12.126;2022-07-29T01:30:53;97357.25;;;20.12;53.78
58875;BME280;44652;49.040;12.126;2022-07-29T01:33:23;97350.09;;;20.11;53.95
58875;BME280;44652;49.040;12.126;2022-07-29T01:36:13;97357.34;;;20.06;54.07
58875;BME280;44652;49.040;12.126;2022-07-29T01:38:42;97337.97;;;19.90;54.55
58875;BME280;44652;49.040;12.126;2022-07-29T01:41:16;97309.69;;;19.72;55.14
58875;BME280;44652;49.040;12.126;2022-07-29T01:43:52;97322.88;;;19.84;55.39
58875;BME280;44652;49.040;12.126;2022-07-29T01:46:26;97338.03;;;19.84;55.98
58875;BME280;44652;49.040;12.126;2022-07-29T01:49:02;97348.78;;;19.82;56.38
58875;BME280;44652;49.040;12.126;2022-07-29T01:51:38;97324.78;;;19.78;56.85
58875;BME280;44652;49.040;12.126;2022-07-29T01:54:59;97314.19;;;19.70;56.29
58875;BME280;44652;49.040;12.126;2022-07-29T01:57:14;97331.88;;;19.79;56.50
58875;BME280;44652;49.040;12.126;2022-07-29T01:59:42;97330.06;;;19.81;56.62
58875;BME280;44652;49.040;12.126;2022-07-29T02:02:10;97300.94;;;19.58;57.20
58875;BME280;44652;49.040;12.126;2022-07-29T02:04:40;97298.53;;;19.41;58.09
58875;BME280;44652;49.040;12.126;2022-07-29T02:07:10;97331.31;;;19.54;58.33
58875;BME280;44652;49.040;12.126;2022-07-29T02:09:41;97307.31;;;19.49;57.29
58875;BME280;44652;49.040;12.126;2022-07-29T02:12:09;97283.41;;;19.38;57.17
58875;BME280;44652;49.040;12.126;2022-07-29T02:14:43;97300.41;;;19.34;57.80
58875;BME280;44652;49.040;12.126;2022-07-29T02:17:13;97298.53;;;19.39;58.00
58875;BME280;44652;49.040;12.126;2022-07-29T02:19:41;97327.69;;;19.58;58.26
58875;BME280;44652;49.040;12.126;2022-07-29T02:22:09;97329.69;;;19.43;58.75
58875;BME280;44652;49.040;12.126;2022-07-29T02:24:38;97308.56;;;19.25;58.94
58875;BME280;44652;49.040;12.126;2022-07-29T02:27:07;97323.50;;;19.40;59.18
58875;BME280;44652;49.040;12.126;2022-07-29T02:29:35;97304.09;;;19.24;59.31
58875;BME280;44652;49.040;12.126;2022-07-29T02:32:04;97331.00;;;19.10;61.14
58875;BME280;44652;49.040;12.126;2022-07-29T02:34:33;97332.00;;;19.00;62.00
58875;BME280;44652;49.040;12.126;2022-07-29T02:37:01;97323.22;;;18.90;62.94
58875;BME280;44652;49.040;12.126;2022-07-29T02:39:29;97317.88;;;18.89;63.35
58875;BME280;44652;49.040;12.126;2022-07-29T02:42:02;97342.66;;;19.03;63.33
58875;BME280;44652;49.040;12.126;2022-07-29T02:44:30;97334.66;;;19.03;62.45
58875;BME280;44652;49.040;12.126;2022-07-29T02:47:09;97333.69;;;19.07;62.10
58875;BME280;44652;49.040;12.126;2022-07-29T02:55:18;97334.56;;;19.08;60.49
58875;BME280;44652;49.040;12.126;2022-07-29T02:58:00;97330.97;;;19.13;59.39
58875;BME280;44652;49.040;12.126;2022-07-29T03:00:29;97324.75;;;19.11;58.85
58875;BME280;44652;49.040;12.126;2022-07-29T03:02:59;97318.59;;;19.06;58.30
58875;BME280;44652;49.040;12.126;2022-07-29T03:05:27;97339.94;;;19.09;59.28
58875;BME280;44652;49.040;12.126;2022-07-29T03:08:05;97315.13;;;18.98;59.20
58875;BME280;44652;49.040;12.126;2022-07-29T03:10:33;97324.81;;;19.07;58.64
58875;BME280;44652;49.040;12.126;2022-07-29T03:13:01;97342.41;;;19.23;58.21
58875;BME280;44652;49.040;12.126;2022-07-29T03:15:28;97333.50;;;19.23;57.92
58875;BME280;44652;49.040;12.126;2022-07-29T03:17:55;97328.25;;;19.15;57.25
58875;BME280;44652;49.040;12.126;2022-07-29T03:20:23;97334.41;;;19.25;56.61
58875;BME280;44652;49.040;12.126;2022-07-29T03:22:50;97298.00;;;19.13;56.46
58875;BME280;44652;49.040;12.126;2022-07-29T03:25:19;97338.88;;;19.21;56.87
58875;BME280;44652;49.040;12.126;2022-07-29T03:27:46;97314.13;;;19.05;56.87
58875;BME280;44652;49.040;12.126;2022-07-29T03:30:14;97328.28;;;19.12;56.77
58875;BME280;44652;49.040;12.126;2022-07-29T03:32:47;97316.97;;;18.91;57.01
58875;BME280;44652;49.040;12.126;2022-07-29T03:35:14;97341.59;;;19.18;56.33
58875;BME280;44652;49.040;12.126;2022-07-29T03:37:43;97313.34;;;18.97;56.84
58875;BME280;44652;49.040;12.126;2022-07-29T03:40:16;97314.25;;;18.96;56.64
58875;BME280;44652;49.040;12.126;2022-07-29T03:42:45;97303.53;;;18.98;56.95
58875;BME280;44652;49.040;12.126;2022-07-29T03:45:15;97304.44;;;18.98;56.98
58875;BME280;44652;49.040;12.126;2022-07-29T03:47:48;97311.63;;;18.91;57.33
58875;BME280;44652;49.040;12.126;2022-07-29T03:50:18;97339.00;;;19.09;56.95
58875;BME280;44652;49.040;12.126;2022-07-29T03:52:47;97311.72;;;18.82;57.06
58875;BME280;44652;49.040;12.126;2022-07-29T03:55:14;97321.25;;;19.06;56.58
58875;BME280;44652;49.040;12.126;2022-07-29T03:57:42;97316.91;;;18.96;56.54
58875;BME280;44652;49.040;12.126;2022-07-29T04:00:11;97343.56;;;19.01;57.20
58875;BME280;44652;49.040;12.126;2022-07-29T04:02:38;97338.97;;;19.12;56.43
58875;BME280;44652;49.040;12.126;2022-07-29T04:05:11;97368.22;;;19.24;56.15
58875;BME280;44652;49.040;12.126;2022-07-29T04:07:38;97339.09;;;19.03;56.00
58875;BME280;44652;49.040;12.126;2022-07-29T04:10:05;97357.81;;;19.00;56.53
58875;BME280;44652;49.040;12.126;2022-07-29T04:12:32;97353.44;;;18.95;57.04
58875;BME280;44652;49.040;12.126;2022-07-29T04:14:58;97344.53;;;18.93;57.39
58875;BME280;44652;49.040;12.126;2022-07-29T04:17:25;97370.03;;;19.20;56.31
58875;BME280;44652;49.040;12.126;2022-07-29T04:19:51;97367.31;;;19.28;56.27
58875;BME280;44652;49.040;12.126;2022-07-29T04:22:18;97377.94;;;19.33;55.74
58875;BME280;44652;49.040;12.126;2022-07-29T04:24:45;97358.44;;;19.25;56.30
58875;BME280;44652;49.040;12.126;2022-07-29T04:27:11;97377.03;;;19.31;55.86
58875;BME280;44652;49.040;12.126;2022-07-29T04:29:38;97382.31;;;19.35;55.66
58875;BME280;44652;49.040;12.126;2022-07-29T04:32:23;97374.41;;;19.29;55.76
58875;BME280;44652;49.040;12.126;2022-07-29T04:34:51;97377.91;;;19.36;56.14
58875;BME280;44652;49.040;12.126;2022-07-29T04:37:17;97379.69;;;19.34;56.25
58875;BME280;44652;49.040;12.126;2022-07-29T04:39:44;97378.91;;;19.26;56.33
58875;BME280;44652;49.040;12.126;2022-07-29T04:42:11;97362.13;;;19.14;56.44
58875;BME280;44652;49.040;12.126;2022-07-29T04:44:38;97364.84;;;19.08;56.56
58875;BME280;44652;49.040;12.126;2022-07-29T04:47:08;97386.16;;;19.14;56.58
58875;BME280;44652;49.040;12.126;2022-07-29T04:49:38;97377.44;;;18.99;57.13
58875;BME280;44652;49.040;12.126;2022-07-29T04:52:05;97376.66;;;18.87;57.40
58875;BME280;44652;49.040;12.126;2022-07-29T04:54:33;97371.38;;;18.81;58.04
58875;BME280;44652;49.040;12.126;2022-07-29T04:56:59;97400.56;;;19.00;57.44
58875;BME280;44652;49.040;12.126;2022-07-29T04:59:26;97366.97;;;18.77;57.35
58875;BME280;44652;49.040;12.126;2022-07-29T05:01:53;97386.31;;;19.02;56.93
58875;BME280;44652;49.040;12.126;2022-07-29T05:04:20;97370.34;;;18.96;56.19
58875;BME280;44652;49.040;12.126;2022-07-29T05:06:47;97375.63;;;19.02;56.47
58875;BME280;44652;49.040;12.126;2022-07-29T05:09:14;97371.19;;;19.00;56.42
58875;BME280;44652;49.040;12.126;2022-07-29T05:11:41;97393.44;;;19.00;56.36
58875;BME280;44652;49.040;12.126;2022-07-29T05:14:07;97384.59;;;18.95;56.27
58875;BME280;44652;49.040;12.126;2022-07-29T05:16:34;97397.78;;;19.10;56.15
58875;BME280;44652;49.040;12.126;2022-07-29T05:19:01;97387.06;;;19.13;55.92
58875;BME280;44652;49.040;12.126;2022-07-29T05:21:28;97380.84;;;19.11;55.61
58875;BME280;44652;49.040;12.126;2022-07-29T05:23:55;97409.09;;;19.34;55.29
58875;BME280;44652;49.040;12.126;2022-07-29T05:26:21;97376.31;;;19.16;55.62
58875;BME280;44652;49.040;12.126;2022-07-29T05:28:48;97393.97;;;19.31;55.61
58875;BME280;44652;49.040;12.126;2022-07-29T05:31:15;97393.03;;;19.35;55.72
58875;BME280;44652;49.040;12.126;2022-07-29T05:33:42;97388.63;;;19.31;55.95
58875;BME280;44652;49.040;12.126;2022-07-29T05:36:08;97385.16;;;19.25;55.85
58875;BME280;44652;49.040;12.126;2022-07-29T05:38:35;97407.41;;;19.25;55.78
58875;BME280;44652;49.040;12.126;2022-07-29T05:41:03;97379.97;;;19.11;56.28
58875;BME280;44652;49.040;12.126;2022-07-29T05:43:30;97398.53;;;19.25;56.65
58875;BME280;44652;49.040;12.126;2022-07-29T05:45:57;97401.88;;;19.40;55.64
58875;BME280;44652;49.040;12.126;2022-07-29T05:48:24;97406.38;;;19.35;55.52
58875;BME280;44652;49.040;12.126;2022-07-29T05:50:51;97401.13;;;19.28;56.21
58875;BME280;44652;49.040;12.126;2022-07-29T05:53:17;97393.25;;;19.15;56.28
58875;BME280;44652;49.040;12.126;2022-07-29T05:55:47;97398.47;;;19.28;56.27
58875;BME280;44652;49.040;12.126;2022-07-29T05:58:14;97400.97;;;19.41;55.74
58875;BME280;44652;49.040;12.126;2022-07-29T06:00:41;97392.19;;;19.30;55.71
58875;BME280;44652;49.040;12.126;2022-07-29T06:03:08;97410.78;;;19.39;55.31
58875;BME280;44652;49.040;12.126;2022-07-29T06:05:34;97415.41;;;19.28;55.77
58875;BME280;44652;49.040;12.126;2022-07-29T06:08:01;97409.94;;;19.37;56.03
58875;BME280;44652;49.040;12.126;2022-07-29T06:10:28;97408.09;;;19.44;55.79
58875;BME280;44652;49.040;12.126;2022-07-29T06:12:55;97398.22;;;19.49;55.37
58875;BME280;44652;49.040;12.126;2022-07-29T06:15:21;97393.69;;;19.54;55.09
58875;BME280;44652;49.040;12.126;2022-07-29T06:17:48;97373.09;;;19.61;54.91
58875;BME280;44652;49.040;12.126;2022-07-29T06:20:30;97388.41;;;19.50;55.20
58875;BME280;44652;49.040;12.126;2022-07-29T06:22:58;97392.72;;;19.58;55.92
58875;BME280;44652;49.040;12.126;2022-07-29T06:25:26;97380.13;;;19.69;55.57
58875;BME280;44652;49.040;12.126;2022-07-29T06:27:55;97397.75;;;19.84;54.79
58875;BME280;44652;49.040;12.126;2022-07-29T06:30:22;97400.22;;;20.00;55.04
58875;BME280;44652;49.040;12.126;2022-07-29T06:32:49;97404.44;;;20.16;54.04
58875;BME280;44652;49.040;12.126;2022-07-29T06:35:15;97405.97;;;20.32;53.32
58875;BME280;44652;49.040;12.126;2022-07-29T06:38:02;97379.53;;;20.11;53.41
58875;BME280;44652;49.040;12.126;2022-07-29T06:40:43;97386.78;;;20.04;53.55
58875;BME280;44652;49.040;12.126;2022-07-29T06:43:31;97404.13;;;20.36;53.32
58875;BME280;44652;49.040;12.126;2022-07-29T06:46:02;97411.00;;;20.55;51.98
58875;BME280;44652;49.040;12.126;2022-07-29T06:48:29;97422.44;;;20.65;52.44
58875;BME280;44652;49.040;12.126;2022-07-29T06:50:56;97393.03;;;20.60;52.44
58875;BME280;44652;49.040;12.126;2022-07-29T06:53:22;97374.28;;;20.60;51.74
58875;BME280;44652;49.040;12.126;2022-07-29T06:55:49;97387.72;;;20.59;53.42
58875;BME280;44652;49.040;12.126;2022-07-29T06:58:16;97414.97;;;20.82;52.59
58875;BME280;44652;49.040;12.126;2022-07-29T07:00:54;97434.53;;;20.89;52.19
58875;BME280;44652;49.040;12.126;2022-07-29T07:03:22;97436.38;;;20.85;51.98
58875;BME280;44652;49.040;12.126;2022-07-29T07:05:49;97422.84;;;20.93;52.04
58875;BME280;44652;49.040;12.126;2022-07-29T07:08:16;97446.56;;;21.14;51.60
58875;BME280;44652;49.040;12.126;2022-07-29T07:10:42;97430.88;;;20.93;51.78
58875;BME280;44652;49.040;12.126;2022-07-29T07:13:09;97419.41;;;20.85;51.85
58875;BME280;44652;49.040;12.126;2022-07-29T07:15:36;97442.38;;;20.98;51.94
58875;BME280;44652;49.040;12.126;2022-07-29T07:18:06;97436.97;;;21.01;52.08
58875;BME280;44652;49.040;12.126;2022-07-29T07:20:34;97430.81;;;20.95;51.77
58875;BME280;44652;49.040;12.126;2022-07-29T07:23:00;97435.16;;;21.03;52.54
58875;BME280;44652;49.040;12.126;2022-07-29T07:25:27;97431.31;;;21.17;52.06
58875;BME280;44652;49.040;12.126;2022-07-29T07:27:54;97430.69;;;21.04;52.77
58875;BME280;44652;49.040;12.126;2022-07-29T07:30:21;97433.75;;;21.29;52.18
58875;BME280;44652;49.040;12.126;2022-07-29T07:32:48;97439.41;;;21.13;52.57
58875;BME280;44652;49.040;12.126;2022-07-29T07:35:15;97417.78;;;21.26;51.98
58875;BME280;44652;49.040;12.126;2022-07-29T07:37:42;97409.56;;;21.35;52.30
58875;BME280;44652;49.040;12.126;2022-07-29T07:40:10;97429.94;;;21.45;52.41
58875;BME280;44652;49.040;12.126;2022-07-29T07:42:44;97421.97;;;21.41;52.49
58875;BME280;44652;49.040;12.126;2022-07-29T07:45:11;97426.06;;;21.58;53.17
58875;BME280;44652;49.040;12.126;2022-07-29T07:47:42;97403.47;;;21.70;53.85
58875;BME280;44652;49.040;12.126;2022-07-29T07:50:10;97417.47;;;21.86;53.43
58875;BME280;44652;49.040;12.126;2022-07-29T07:52:51;97411.34;;;21.78;52.58
58875;BME280;44652;49.040;12.126;2022-07-29T07:55:18;97403.41;;;21.73;52.72
58875;BME280;44652;49.040;12.126;2022-07-29T07:57:45;97410.19;;;21.91;53.47
58875;BME280;44652;49.040;12.126;2022-07-29T08:00:14;97405.47;;;22.01;53.62
58875;BME280;44652;49.040;12.126;2022-07-29T08:02:41;97420.19;;;22.25;53.26
58875;BME280;44652;49.040;12.126;2022-07-29T08:05:13;97414.59;;;22.34;53.07
58875;BME280;44652;49.040;12.126;2022-07-29T08:07:46;97402.50;;;22.16;52.85
58875;BME280;44652;49.040;12.126;2022-07-29T08:10:15;97425.31;;;22.36;52.52
58875;BME280;44652;49.040;12.126;2022-07-29T08:13:06;97410.09;;;22.34;52.83
58875;BME280;44652;49.040;12.126;2022-07-29T08:15:34;97417.94;;;22.44;52.26
58875;BME280;44652;49.040;12.126;2022-07-29T08:18:01;97431.88;;;22.59;53.41
58875;BME280;44652;49.040;12.126;2022-07-29T08:20:35;97414.16;;;22.52;52.23
58875;BME280;44652;49.040;12.126;2022-07-29T08:23:02;97413.22;;;22.53;51.53
58875;BME280;44652;49.040;12.126;2022-07-29T08:25:29;97423.44;;;22.75;52.10
58875;BME280;44652;49.040;12.126;2022-07-29T08:27:55;97426.88;;;22.81;52.48
58875;BME280;44652;49.040;12.126;2022-07-29T08:30:22;97403.69;;;22.77;52.34
58875;BME280;44652;49.040;12.126;2022-07-29T08:32:49;97416.78;;;22.91;52.32
58875;BME280;44652;49.040;12.126;2022-07-29T08:35:22;97426.41;;;23.00;51.47
58875;BME280;44652;49.040;12.126;2022-07-29T08:37:50;97434.09;;;23.14;52.12
58875;BME280;44652;49.040;12.126;2022-07-29T08:40:17;97404.19;;;22.93;52.05
58875;BME280;44652;49.040;12.126;2022-07-29T08:42:44;97421.06;;;23.00;52.41
58875;BME280;44652;49.040;12.126;2022-07-29T08:45:11;97409.41;;;23.32;52.00
58875;BME280;44652;49.040;12.126;2022-07-29T08:47:39;97425.31;;;23.41;51.63
58875;BME280;44652;49.040;12.126;2022-07-29T08:50:08;97414.94;;;23.59;51.17
58875;BME280;44652;49.040;12.126;2022-07-29T08:52:40;97400.47;;;23.63;50.60
58875;BME280;44652;49.040;12.126;2022-07-29T08:55:08;97393.19;;;23.68;51.05
58875;BME280;44652;49.040;12.126;2022-07-29T08:57:36;97411.41;;;24.17;50.40
58875;BME280;44652;49.040;12.126;2022-07-29T09:00:17;97405.00;;;24.21;49.53
58875;BME280;44652;49.040;12.126;2022-07-29T09:02:47;97385.53;;;24.13;49.10
58875;BME280;44652;49.040;12.126;2022-07-29T09:05:18;97402.56;;;24.14;49.52
58875;BME280;44652;49.040;12.126;2022-07-29T09:07:45;97396.78;;;24.26;49.70
58875;BME280;44652;49.040;12.126;2022-07-29T09:10:14;97413.09;;;24.49;49.35
58875;BME280;44652;49.040;12.126;2022-07-29T09:12:41;97391.75;;;24.43;49.65
58875;BME280;44652;49.040;12.126;2022-07-29T09:15:08;97406.25;;;24.39;50.10
58875;BME280;44652;49.040;12.126;2022-07-29T09:17:46;97409.78;;;24.41;50.14
58875;BME280;44652;49.040;12.126;2022-07-29T09:20:16;97405.09;;;24.18;50.11
58875;BME280;44652;49.040;12.126;2022-07-29T09:22:44;97389.97;;;24.14;49.59
58875;BME280;44652;49.040;12.126;2022-07-29T09:25:32;97401.75;;;24.40;48.55
58875;BME280;44652;49.040;12.126;2022-07-29T09:28:10;97386.63;;;24.34;48.58
58875;BME280;44652;49.040;12.126;2022-07-29T09:30:56;97408.13;;;24.36;47.53
58875;BME280;44652;49.040;12.126;2022-07-29T09:33:30;97405.63;;;24.30;47.22
58875;BME280;44652;49.040;12.126;2022-07-29T09:36:05;97374.69;;;24.15;46.65
58875;BME280;44652;49.040;12.126;2022-07-29T09:38:34;97390.31;;;24.60;45.84
58875;BME280;44652;49.040;12.126;2022-07-29T09:41:03;97406.34;;;24.64;46.41
58875;BME280;44652;49.040;12.126;2022-07-29T09:43:33;97383.72;;;24.95;45.37
58875;BME280;44652;49.040;12.126;2022-07-29T09:46:10;97390.88;;;24.96;45.45
58875;BME280;44652;49.040;12.126;2022-07-29T09:48:38;97384.00;;;24.87;45.23
58875;BME280;44652;49.040;12.126;2022-07-29T09:51:04;97377.66;;;25.15;45.11
58875;BME280;44652;49.040;12.126;2022-07-29T09:56:01;97384.38;;;25.28;45.46
58875;BME280;44652;49.040;12.126;2022-07-29T09:58:28;97390.22;;;25.16;45.03
58875;BME280;44652;49.040;12.126;2022-07-29T10:00:55;97393.78;;;25.41;44.77
58875;BME280;44652;49.040;12.126;2022-07-29T10:03:23;97389.63;;;25.56;44.80
58875;BME280;44652;49.040;12.126;2022-07-29T10:06:07;97368.75;;;25.61;43.72
58875;BME280;44652;49.040;12.126;2022-07-29T10:08:34;97375.06;;;25.85;42.75
58875;BME280;44652;49.040;12.126;2022-07-29T10:11:12;97373.47;;;26.03;41.04
58875;BME280;44652;49.040;12.126;2022-07-29T10:13:41;97380.41;;;26.10;41.07
58875;BME280;44652;49.040;12.126;2022-07-29T10:16:08;97383.28;;;26.28;42.62
58875;BME280;44652;49.040;12.126;2022-07-29T10:18:38;97343.91;;;26.22;43.32
58875;BME280;44652;49.040;12.126;2022-07-29T10:21:05;97373.31;;;26.52;42.46
58875;BME280;44652;49.040;12.126;2022-07-29T10:23:34;97374.38;;;26.69;42.40
58875;BME280;44652;49.040;12.126;2022-07-29T10:26:13;97365.13;;;26.31;41.42
58875;BME280;44652;49.040;12.126;2022-07-29T10:28:40;97377.31;;;26.19;41.97
58875;BME280;44652;49.040;12.126;2022-07-29T10:31:14;97357.78;;;26.35;41.60
58875;BME280;44652;49.040;12.126;2022-07-29T10:39:23;97345.34;;;26.31;42.37
58875;BME280;44652;49.040;12.126;2022-07-29T10:44:35;97372.09;;;26.60;40.97
58875;BME280;44652;49.040;12.126;2022-07-29T10:47:02;97374.91;;;26.79;40.86
58875;BME280;44652;49.040;12.126;2022-07-29T10:49:29;97372.88;;;27.05;41.82
58875;BME280;44652;49.040;12.126;2022-07-29T10:54:46;97342.19;;;27.47;40.07
58875;BME280;44652;49.040;12.126;2022-07-29T10:57:27;97360.50;;;27.60;38.80
58875;BME280;44652;49.040;12.126;2022-07-29T11:00:27;97354.28;;;27.38;39.38
58875;BME280;44652;49.040;12.126;2022-07-29T11:02:54;97357.97;;;27.76;39.04
58875;BME280;44652;49.040;12.126;2022-07-29T11:05:23;97334.28;;;27.81;38.43
58875;BME280;44652;49.040;12.126;2022-07-29T11:10:46;97327.38;;;28.50;37.11
58875;BME280;44652;49.040;12.126;2022-07-29T11:13:45;97348.53;;;28.60;36.83
58875;BME280;44652;49.040;12.126;2022-07-29T11:16:19;97345.97;;;28.57;36.38
58875;BME280;44652;49.040;12.126;2022-07-29T11:21:44;97320.84;;;28.54;37.43
58875;BME280;44652;49.040;12.126;2022-07-29T11:24:22;97336.16;;;28.90;37.29
58875;BME280;44652;49.040;12.126;2022-07-29T11:27:17;97338.56;;;28.96;36.66
58875;BME280;44652;49.040;12.126;2022-07-29T11:29:52;97329.34;;;29.00;36.65
58875;BME280;44652;49.040;12.126;2022-07-29T11:32:20;97323.75;;;29.53;35.77
58875;BME280;44652;49.040;12.126;2022-07-29T11:34:50;97306.25;;;29.26;36.42
58875;BME280;44652;49.040;12.126;2022-07-29T11:37:45;97308.50;;;29.84;35.28
58875;BME280;44652;49.040;12.126;2022-07-29T11:40:22;97294.59;;;29.90;34.97
58875;BME280;44652;49.040;12.126;2022-07-29T11:42:49;97301.44;;;29.81;35.56
58875;BME280;44652;49.040;12.126;2022-07-29T11:45:23;97296.66;;;29.69;35.75
58875;BME280;44652;49.040;12.126;2022-07-29T11:48:15;97317.13;;;29.26;37.49
58875;BME280;44652;49.040;12.126;2022-07-29T11:50:58;97327.31;;;28.86;37.14
58875;BME280;44652;49.040;12.126;2022-07-29T11:53:25;97328.28;;;28.85;37.41
58875;BME280;44652;49.040;12.126;2022-07-29T11:56:12;97298.19;;;28.36;38.39
58875;BME280;44652;49.040;12.126;2022-07-29T11:58:42;97317.78;;;28.60;38.61
58875;BME280;44652;49.040;12.126;2022-07-29T12:01:13;97306.69;;;28.28;38.12
58875;BME280;44652;49.040;12.126;2022-07-29T12:03:40;97307.09;;;28.21;38.54
58875;BME280;44652;49.040;12.126;2022-07-29T12:06:13;97310.66;;;28.21;38.72
58875;BME280;44652;49.040;12.126;2022-07-29T12:08:44;97316.38;;;28.34;38.99
58875;BME280;44652;49.040;12.126;2022-07-29T12:11:18;97322.31;;;28.42;38.99
58875;BME280;44652;49.040;12.126;2022-07-29T12:13:48;97323.44;;;28.55;38.32
58875;BME280;44652;49.040;12.126;2022-07-29T12:16:15;97307.22;;;28.18;38.44
58875;BME280;44652;49.040;12.126;2022-07-29T12:18:59;97319.25;;;28.31;38.64
58875;BME280;44652;49.040;12.126;2022-07-29T12:21:29;97311.25;;;28.28;38.88
58875;BME280;44652;49.040;12.126;2022-07-29T12:23:57;97313.81;;;28.50;39.11
58875;BME280;44652;49.040;12.126;2022-07-29T12:26:35;97294.13;;;28.27;38.52
58875;BME280;44652;49.040;12.126;2022-07-29T12:29:03;97286.94;;;28.45;38.55
58875;BME280;44652;49.040;12.126;2022-07-29T12:31:40;97307.81;;;28.24;39.14
58875;BME280;44652;49.040;12.126;2022-07-29T12:34:12;97304.94;;;28.64;37.92
58875;BME280;44652;49.040;12.126;2022-07-29T12:36:41;97309.19;;;28.33;38.94
58875;BME280;44652;49.040;12.126;2022-07-29T12:39:09;97301.66;;;27.84;40.20
58875;BME280;44652;49.040;12.126;2022-07-29T12:41:37;97300.31;;;27.93;39.33
58875;BME280;44652;49.040;12.126;2022-07-29T12:44:04;97303.66;;;27.98;39.54
58875;BME280;44652;49.040;12.126;2022-07-29T12:46:31;97275.25;;;27.88;39.91
58875;BME280;44652;49.040;12.126;2022-07-29T12:48:57;97294.00;;;28.11;40.15
58875;BME280;44652;49.040;12.126;2022-07-29T12:56:33;97269.69;;;27.72;39.85
58875;BME280;44652;49.040;12.126;2022-07-29T12:59:18;97290.34;;;27.75;40.17
58875;BME280;44652;49.040;12.126;2022-07-29T13:01:47;97291.94;;;27.60;40.83
58875;BME280;44652;49.040;12.126;2022-07-29T13:04:30;97278.16;;;27.85;39.40
58875;BME280;44652;49.040;12.126;2022-07-29T13:07:07;97272.41;;;27.91;39.22
58875;BME280;44652;49.040;12.126;2022-07-29T13:09:45;97273.06;;;28.15;38.84
58875;BME280;44652;49.040;12.126;2022-07-29T13:12:14;97281.72;;;28.22;39.64
58875;BME280;44652;49.040;12.126;2022-07-29T13:14:46;97255.66;;;28.38;38.73
58875;BME280;44652;49.040;12.126;2022-07-29T13:17:19;97274.03;;;29.36;36.82
58875;BME280;44652;49.040;12.126;2022-07-29T13:19:52;97260.56;;;29.67;36.07
58875;BME280;44652;49.040;12.126;2022-07-29T13:22:23;97263.81;;;30.05;35.98
58875;BME280;44652;49.040;12.126;2022-07-29T13:24:58;97246.44;;;29.76;35.90
58875;BME280;44652;49.040;12.126;2022-07-29T13:27:27;97246.81;;;29.70;35.37
58875;BME280;44652;49.040;12.126;2022-07-29T13:29:57;97256.81;;;29.86;36.13
58875;BME280;44652;49.040;12.126;2022-07-29T13:32:25;97261.06;;;29.58;36.29
58875;BME280;44652;49.040;12.126;2022-07-29T13:34:55;97247.72;;;29.20;36.37
58875;BME280;44652;49.040;12.126;2022-07-29T13:37:22;97246.81;;;29.37;36.76
58875;BME280;44652;49.040;12.126;2022-07-29T13:39:49;97252.47;;;29.66;35.77
58875;BME280;44652;49.040;12.126;2022-07-29T13:42:19;97247.34;;;30.09;35.95
58875;BME280;44652;49.040;12.126;2022-07-29T13:44:45;97221.47;;;30.01;34.99
58875;BME280;44652;49.040;12.126;2022-07-29T13:47:12;97221.31;;;30.20;34.91
58875;BME280;44652;49.040;12.126;2022-07-29T13:49:39;97237.06;;;30.60;34.64